Time;durP1;ratioP1;P1;durP2;ratioP2;P2;SDS_P1;SDS_P2;PMS_P1;PMS_P2;Temp;Humidity;BMP_temperature;BMP_pressure;BME280_temperature;BME280_humidity;BME280_pressure;Samples;Min_cycle;Max_cycle;Signal;HPM_P1;HPM_P2
2024/01/06 00:00:12;;;;;;;10.07;9.57;;;;;;;7.21;72.21;92616.19;5055818;28;20186;-73
2024/01/06 00:02:38;;;;;;;8.93;8.53;;;;;;;7.38;71.69;92616.72;5044175;28;20226;-74
2024/01/06 00:05:03;;;;;;;10.67;10.07;;;;;;;7.22;71.17;92576.19;5050736;28;20202;-73
2024/01/06 00:07:29;;;;;;;9.73;9.03;;;;;;;7.48;70.70;92608.16;5049572;28;20233;-73
2024/01/06 00:09:54;;;;;;;9.53;8.83;;;;;;;7.61;71.59;92599.88;5052591;28;20186;-74
2024/01/06 00:12:19;;;;;;;8.93;8.47;;;;;;;7.49;71.79;92574.16;5052147;28;20225;-73
2024/01/06 00:14:45;;;;;;;9.97;9.40;;;;;;;7.27;74.00;92560.63;5053223;28;20253;-74
2024/01/06 00:17:11;;;;;;;8.60;8.20;;;;;;;7.52;71.72;92594.41;5049034;28;20221;-74
2024/01/06 00:19:36;;;;;;;8.97;8.53;;;;;;;7.22;70.00;92586.59;5072539;28;20185;-72
2024/01/06 00:22:01;;;;;;;8.50;7.90;;;;;;;7.20;70.71;92617.25;5071587;28;20252;-74
2024/01/06 00:24:27;;;;;;;10.03;9.53;;;;;;;7.58;71.68;92618.59;5065894;28;20185;-74
2024/01/06 00:26:52;;;;;;;9.83;9.33;;;;;;;7.47;73.43;92612.56;5065838;28;20240;-74
2024/01/06 00:29:18;;;;;;;18.33;13.07;;;;;;;7.52;73.86;92614.41;5058502;28;20273;-74
2024/01/06 00:31:43;;;;;;;11.10;10.33;;;;;;;7.46;73.48;92624.00;5061274;28;20229;-74
2024/01/06 00:34:09;;;;;;;9.53;8.93;;;;;;;7.43;72.15;92624.53;5047156;28;20238;-74
2024/01/06 00:36:34;;;;;;;9.87;9.37;;;;;;;7.39;71.99;92605.28;5047356;28;20476;-74
2024/01/06 00:38:59;;;;;;;9.47;8.87;;;;;;;7.38;72.18;92619.34;5041833;28;20193;-74
2024/01/06 00:41:25;;;;;;;9.53;9.13;;;;;;;7.44;71.96;92626.09;5044722;28;20194;-74
2024/01/06 00:46:34;;;;;;;9.07;8.67;;;;;;;7.25;74.01;92604.28;5063377;28;20265;-74
2024/01/06 00:48:59;;;;;;;9.67;9.17;;;;;;;7.25;75.56;92617.25;5071607;28;20181;-74
2024/01/06 00:51:25;;;;;;;9.27;8.77;;;;;;;7.15;76.24;92614.63;5062281;28;20189;-74
2024/01/06 00:53:50;;;;;;;9.67;9.27;;;;;;;7.15;74.83;92609.44;5064721;28;20193;-74
2024/01/06 00:56:15;;;;;;;9.07;8.47;;;;;;;7.05;74.48;92609.41;5071523;28;20223;-75
2024/01/06 00:58:41;;;;;;;9.10;8.70;;;;;;;6.89;75.09;92591.47;5066817;28;20341;-73
2024/01/06 01:01:06;;;;;;;9.90;9.33;;;;;;;7.08;72.10;92606.28;5069635;28;20182;-74
2024/01/06 01:03:31;;;;;;;9.23;8.83;;;;;;;7.22;72.92;92609.94;5051125;28;20748;-74
2024/01/06 01:05:57;;;;;;;10.23;9.53;;;;;;;7.04;73.01;92613.03;5061761;28;20186;-73
2024/01/06 01:08:22;;;;;;;9.77;9.17;;;;;;;7.19;71.81;92600.09;5049085;28;20218;-74
2024/01/06 01:10:48;;;;;;;10.33;9.70;;;;;;;6.99;74.11;92600.06;5046862;28;20189;-74
2024/01/06 01:13:13;;;;;;;9.73;9.03;;;;;;;7.04;73.99;92613.03;5039271;28;20221;-74
2024/01/06 01:15:38;;;;;;;10.37;9.60;;;;;;;7.20;73.33;92613.84;5043923;28;20210;-73
2024/01/06 01:18:04;;;;;;;10.00;9.40;;;;;;;7.12;75.06;92603.97;5049763;28;21148;-74
2024/01/06 01:20:29;;;;;;;10.87;9.93;;;;;;;7.05;76.53;92593.06;5050071;28;20221;-74
2024/01/06 01:22:55;;;;;;;10.83;10.13;;;;;;;6.96;76.96;92597.97;5050978;28;20239;-74
2024/01/06 01:25:20;;;;;;;9.67;8.87;;;;;;;6.92;75.92;92589.16;5066543;28;20211;-74
2024/01/06 01:27:45;;;;;;;10.03;9.53;;;;;;;6.79;76.69;92574.06;5065132;28;20221;-74
2024/01/06 01:30:11;;;;;;;10.17;9.67;;;;;;;6.83;77.61;92588.09;5066480;28;20197;-74
2024/01/06 01:32:37;;;;;;;10.63;9.93;;;;;;;6.72;77.97;92565.75;5057345;28;20285;-74
2024/01/06 01:35:03;;;;;;;9.53;8.93;;;;;;;6.81;77.57;92582.38;5061779;28;20190;-74
2024/01/06 01:37:28;;;;;;;10.87;10.17;;;;;;;6.61;78.21;92566.75;5057441;28;20221;-74
2024/01/06 01:39:53;;;;;;;9.93;9.33;;;;;;;6.73;78.32;92567.31;5056209;28;20243;-74
2024/01/06 01:42:19;;;;;;;9.33;8.83;;;;;;;6.84;76.46;92566.28;5070485;28;20221;-74
2024/01/06 01:44:44;;;;;;;8.97;8.47;;;;;;;6.93;76.20;92569.94;5065604;28;20204;-74
2024/01/06 01:47:10;;;;;;;9.53;9.03;;;;;;;6.93;75.68;92571.75;5064808;28;20240;-74
2024/01/06 01:49:35;;;;;;;10.30;9.43;;;;;;;6.98;75.40;92566.56;5059309;28;20268;-74
2024/01/06 01:52:01;;;;;;;10.20;9.60;;;;;;;7.07;75.43;92571.00;5069457;28;20228;-74
2024/01/06 01:54:27;;;;;;;10.87;10.13;;;;;;;6.98;76.16;92548.41;5068664;28;20182;-74
2024/01/06 01:56:53;;;;;;;10.80;10.00;;;;;;;7.02;75.95;92555.41;5061529;28;20243;-73
2024/01/06 01:59:19;;;;;;;10.03;9.53;;;;;;;6.90;76.27;92536.72;5067854;28;20212;-74
2024/01/06 02:01:45;;;;;;;9.23;8.73;;;;;;;6.88;75.30;92543.97;5058290;28;20278;-74
2024/01/06 02:04:12;;;;;;;9.70;9.20;;;;;;;7.19;74.55;92553.34;5068699;28;20178;-74
2024/01/06 02:06:38;;;;;;;11.13;10.53;;;;;;;7.28;75.99;92557.03;5065570;28;20182;-74
2024/01/06 02:09:03;;;;;;;9.47;9.07;;;;;;;7.13;75.55;92558.81;5060438;28;20355;-73
2024/01/06 02:11:29;;;;;;;10.37;9.80;;;;;;;7.07;75.18;92541.66;5073212;28;20174;-74
2024/01/06 02:13:54;;;;;;;9.63;9.13;;;;;;;7.22;76.05;92542.44;5065970;28;20189;-74
2024/01/06 02:16:19;;;;;;;9.97;9.27;;;;;;;7.08;77.90;92525.84;5069473;28;20205;-74
2024/01/06 02:18:45;;;;;;;9.70;9.03;;;;;;;7.11;78.23;92540.91;5045281;28;20230;-74
2024/01/06 02:21:10;;;;;;;9.67;9.10;;;;;;;7.14;78.05;92518.84;5008670;28;1114381;-73
2024/01/06 02:23:36;;;;;;;10.90;10.20;;;;;;;7.20;78.85;92517.81;5063789;28;20240;-73
2024/01/06 02:26:02;;;;;;;13.93;12.07;;;;;;;7.12;79.48;92519.09;5068725;28;20197;-74
2024/01/06 02:28:28;;;;;;;10.10;9.40;;;;;;;7.16;78.73;92525.31;5066408;28;20221;-74
2024/01/06 02:30:53;;;;;;;10.10;9.30;;;;;;;7.28;78.45;92512.09;5069360;28;20197;-73
2024/01/06 02:33:19;;;;;;;13.50;12.33;;;;;;;7.50;75.30;92518.56;5065228;28;20226;-73
2024/01/06 02:35:46;;;;;;;10.90;10.07;;;;;;;7.40;76.99;92528.97;5053951;28;20213;-74
2024/01/06 02:38:11;;;;;;;11.60;10.77;;;;;;;7.20;77.75;92508.19;5048839;28;20240;-74
2024/01/06 02:40:36;;;;;;;11.93;11.10;;;;;;;7.13;78.31;92502.47;5050385;28;20178;-74
2024/01/06 02:43:02;;;;;;;10.93;10.10;;;;;;;7.24;78.93;92504.03;5055326;28;20218;-74
2024/01/06 02:45:27;;;;;;;10.53;9.73;;;;;;;7.12;79.50;92495.75;5063248;28;20185;-74
2024/01/06 02:47:53;;;;;;;11.03;10.13;;;;;;;7.05;78.39;92492.59;5059545;28;20292;-73
2024/01/06 02:50:18;;;;;;;11.00;10.23;;;;;;;7.25;78.26;92502.22;5068774;28;20177;-73
2024/01/06 02:52:45;;;;;;;10.90;10.00;;;;;;;7.27;77.67;92498.31;5058063;28;20218;-74
2024/01/06 02:55:10;;;;;;;11.40;10.50;;;;;;;7.15;78.13;92500.41;5039187;28;20206;-74
2024/01/06 02:57:36;;;;;;;11.07;10.37;;;;;;;7.25;78.34;92481.47;5055638;28;20229;-74
2024/01/06 03:00:01;;;;;;;11.03;10.33;;;;;;;7.09;78.70;92465.13;5066746;28;20181;-74
2024/01/06 03:02:26;;;;;;;9.50;9.10;;;;;;;7.21;78.92;92478.59;5057523;28;20243;-74
2024/01/06 03:04:52;;;;;;;10.43;9.83;;;;;;;7.39;76.47;92449.47;5063157;28;20193;-73
2024/01/06 03:07:17;;;;;;;9.87;9.17;;;;;;;7.23;78.12;92460.94;5067678;28;20221;-73
2024/01/06 03:09:43;;;;;;;9.67;9.17;;;;;;;7.25;78.01;92479.66;5065684;28;20185;-74
2024/01/06 03:12:09;;;;;;;9.47;8.97;;;;;;;7.38;77.84;92468.72;5064220;28;20225;-75
2024/01/06 03:14:35;;;;;;;9.93;9.33;;;;;;;7.06;80.05;92475.22;5060733;28;20182;-74
2024/01/06 03:17:00;;;;;;;9.67;9.17;;;;;;;7.18;80.37;92486.13;5066400;28;20243;-74
2024/01/06 03:19:27;;;;;;;9.33;8.83;;;;;;;7.24;78.98;92472.88;5057730;28;20174;-74
2024/01/06 03:21:53;;;;;;;9.63;9.13;;;;;;;7.19;80.25;92478.06;5067168;28;20241;-74
2024/01/06 03:24:18;;;;;;;9.13;8.73;;;;;;;7.17;79.11;92482.75;5067354;28;20189;-74
2024/01/06 03:26:44;;;;;;;9.77;9.37;;;;;;;7.21;79.28;92473.41;5067409;28;20236;-74
2024/01/06 03:29:09;;;;;;;10.57;10.07;;;;;;;6.99;80.20;92469.53;5067326;28;20188;-73
2024/01/06 03:31:34;;;;;;;10.43;9.93;;;;;;;6.97;80.44;92467.19;5058051;28;20216;-74
2024/01/06 03:34:00;;;;;;;9.40;9.00;;;;;;;6.81;81.25;92457.06;5069040;28;20169;-74
2024/01/06 03:36:25;;;;;;;9.77;9.27;;;;;;;6.75;82.17;92453.69;5068066;28;20232;-74
2024/01/06 03:38:50;;;;;;;9.03;8.63;;;;;;;6.83;80.94;92471.34;5068785;28;20216;-74
2024/01/06 03:41:16;;;;;;;10.07;9.23;;;;;;;6.73;80.75;92458.34;5052490;28;20274;-74
2024/01/06 03:43:41;;;;;;;9.90;9.13;;;;;;;6.88;81.09;92458.34;5061295;28;20763;-74
2024/01/06 03:46:06;;;;;;;8.60;8.10;;;;;;;6.80;82.05;92466.69;5063687;28;20208;-74
2024/01/06 03:48:32;;;;;;;10.93;10.20;;;;;;;6.83;81.45;92453.19;5050220;28;20221;-74
2024/01/06 03:51:00;;;;;;;10.53;10.00;;;;;;;6.64;82.04;92459.13;5049382;28;20245;-74
2024/01/06 03:53:25;;;;;;;10.50;9.70;;;;;;;6.73;80.15;92458.34;5046456;28;20225;-74
2024/01/06 03:55:51;;;;;;;9.53;8.77;;;;;;;7.12;77.56;92462.00;5035347;28;20214;-74
2024/01/06 03:58:17;;;;;;;10.47;9.77;;;;;;;6.96;78.33;92464.88;5036883;28;20219;-73
2024/01/06 04:00:42;;;;;;;10.23;9.53;;;;;;;6.97;77.76;92461.22;5040906;28;20663;-74
2024/01/06 04:03:08;;;;;;;10.00;9.27;;;;;;;6.92;77.20;92449.03;5058679;28;20276;-73
2024/01/06 04:05:34;;;;;;;10.07;9.13;;;;;;;7.18;75.72;92452.38;5069829;28;20202;-74
2024/01/06 04:07:59;;;;;;;10.53;9.83;;;;;;;7.39;76.06;92459.88;5065864;28;20256;-74
2024/01/06 04:10:24;;;;;;;9.27;8.77;;;;;;;7.45;75.67;92458.84;5065203;28;20174;-74
2024/01/06 04:12:50;;;;;;;9.80;9.20;;;;;;;7.37;76.66;92472.38;5051781;28;20232;-74
2024/01/06 04:15:16;;;;;;;9.63;9.23;;;;;;;7.34;77.04;92464.31;5048763;28;20192;-74
2024/01/06 04:17:41;;;;;;;9.80;9.07;;;;;;;7.40;76.99;92466.63;5058394;28;20218;-74
2024/01/06 04:20:07;;;;;;;8.73;8.03;;;;;;;7.30;77.31;92450.31;5065390;28;20266;-74
2024/01/06 04:22:33;;;;;;;10.67;9.70;;;;;;;7.20;78.17;92440.72;5060505;28;20867;-73
2024/01/06 04:24:58;;;;;;;10.30;9.80;;;;;;;6.94;78.31;92439.16;5048591;28;20213;-74
2024/01/06 04:27:23;;;;;;;9.87;9.37;;;;;;;7.08;76.69;92460.94;5046664;28;20312;-74
2024/01/06 04:29:52;;;;;;;9.40;8.90;;;;;;;7.40;74.97;92463.25;5039176;28;20175;-74
2024/01/06 04:32:18;;;;;;;10.43;9.90;;;;;;;7.25;76.53;92456.28;5055019;28;20221;-74
2024/01/06 04:34:43;;;;;;;10.57;9.97;;;;;;;7.34;76.97;92467.69;5054826;28;20182;-73
2024/01/06 04:37:09;;;;;;;9.70;9.20;;;;;;;7.15;77.96;92482.25;5058042;28;20225;-74
2024/01/06 04:39:34;;;;;;;10.43;9.83;;;;;;;7.11;78.45;92468.25;5070420;28;20203;-74
2024/01/06 04:41:59;;;;;;;10.27;9.77;;;;;;;7.09;78.08;92453.94;5067600;28;20240;-74
2024/01/06 04:44:25;;;;;;;11.17;10.40;;;;;;;6.98;80.02;92476.53;5063027;28;20200;-74
2024/01/06 04:46:50;;;;;;;9.93;9.33;;;;;;;6.86;80.35;92467.44;5068949;28;20358;-74
2024/01/06 04:49:15;;;;;;;10.00;9.07;;;;;;;6.82;79.71;92454.22;5071368;28;20194;-74
2024/01/06 04:51:41;;;;;;;10.00;9.40;;;;;;;6.91;80.00;92462.25;5063089;28;20211;-74
2024/01/06 04:54:06;;;;;;;10.00;9.40;;;;;;;6.82;79.65;92482.75;5049878;28;20174;-74
2024/01/06 04:56:32;;;;;;;10.13;9.53;;;;;;;7.09;76.83;92465.13;5048318;28;20244;-74
2024/01/06 04:58:57;;;;;;;10.43;9.83;;;;;;;6.79;78.68;92461.72;5050595;28;20182;-74
2024/01/06 05:01:23;;;;;;;10.50;9.77;;;;;;;6.91;78.59;92468.22;5050898;28;20186;-74
2024/01/06 05:03:48;;;;;;;9.87;9.17;;;;;;;6.99;78.16;92459.16;5042703;28;20202;-74
2024/01/06 05:06:14;;;;;;;9.17;8.67;;;;;;;6.95;78.55;92474.47;5049479;28;20186;-74
2024/01/06 05:08:44;;;;;;;9.97;9.30;;;;;;;6.95;78.61;92468.47;5049170;28;20217;-74
2024/01/06 05:11:10;;;;;;;10.67;9.97;;;;;;;7.22;77.24;92453.44;5050351;28;20204;-73
2024/01/06 05:13:35;;;;;;;10.43;9.83;;;;;;;6.95;77.71;92443.31;5058465;28;20209;-74
2024/01/06 05:16:01;;;;;;;11.27;10.73;;;;;;;6.78;79.74;92460.97;5065664;28;20212;-74
2024/01/06 05:18:26;;;;;;;10.53;9.83;;;;;;;6.53;81.31;92445.38;5066057;28;20217;-74
2024/01/06 05:20:52;;;;;;;10.47;9.87;;;;;;;6.29;82.39;92431.31;5067907;28;20229;-74
2024/01/06 05:23:17;;;;;;;10.87;10.17;;;;;;;6.32;82.05;92451.53;5052572;28;20224;-74
2024/01/06 05:25:42;;;;;;;10.63;10.03;;;;;;;6.59;80.96;92439.16;5042074;28;20194;-74
2024/01/06 05:28:08;;;;;;;10.43;9.73;;;;;;;6.26;83.09;92434.41;5050013;28;20286;-74
2024/01/06 05:30:33;;;;;;;11.50;10.90;;;;;;;6.44;81.94;92426.19;5047962;28;20210;-74
2024/01/06 05:32:58;;;;;;;10.40;9.60;;;;;;;6.42;82.13;92417.88;5059915;28;20232;-74
2024/01/06 05:35:24;;;;;;;11.57;10.87;;;;;;;6.19;82.90;92433.91;5070173;28;20195;-74
2024/01/06 05:37:49;;;;;;;11.27;10.57;;;;;;;6.35;82.75;92427.72;5062982;28;20221;-74
2024/01/06 05:40:14;;;;;;;10.60;9.80;;;;;;;6.26;82.67;92408.50;5057232;28;20224;-74
2024/01/06 05:42:40;;;;;;;11.03;10.43;;;;;;;6.31;82.15;92430.03;5058700;28;20252;-74
2024/01/06 05:45:06;;;;;;;10.93;10.00;;;;;;;6.52;81.84;92404.94;5049921;28;20211;-74
2024/01/06 05:47:31;;;;;;;11.43;10.40;;;;;;;6.34;81.93;92420.97;5036809;28;20217;-74
2024/01/06 05:49:57;;;;;;;10.17;9.57;;;;;;;6.58;80.93;92416.84;5045379;28;20249;-74
2024/01/06 05:52:23;;;;;;;11.53;10.90;;;;;;;6.31;81.66;92432.63;5047035;28;20229;-74
2024/01/06 05:54:49;;;;;;;11.37;10.67;;;;;;;6.35;81.85;92401.81;5042608;28;20190;-74
2024/01/06 05:57:14;;;;;;;11.63;10.43;;;;;;;6.41;80.99;92414.50;5043717;28;20252;-74
2024/01/06 05:59:40;;;;;;;11.80;11.03;;;;;;;6.29;80.92;92408.78;5060378;28;20215;-74
2024/01/06 06:02:06;;;;;;;10.57;9.63;;;;;;;6.52;80.89;92408.28;5067182;28;20296;-74
2024/01/06 06:04:31;;;;;;;10.90;10.17;;;;;;;6.39;81.47;92429.53;5061764;28;20170;-74
2024/01/06 06:06:56;;;;;;;9.73;9.23;;;;;;;6.55;80.42;92427.75;5067347;28;20344;-74
2024/01/06 06:09:22;;;;;;;10.77;10.27;;;;;;;6.53;80.76;92415.03;5059095;28;20169;-75
2024/01/06 06:11:47;;;;;;;11.47;10.57;;;;;;;6.36;80.83;92419.69;5054425;28;20217;-74
2024/01/06 06:14:13;;;;;;;11.43;10.63;;;;;;;6.30;80.67;92415.50;5062099;28;20242;-74
2024/01/06 06:16:39;;;;;;;10.13;9.53;;;;;;;6.62;79.87;92417.09;5059281;28;20209;-74
2024/01/06 06:19:04;;;;;;;11.07;10.13;;;;;;;6.41;81.20;92417.09;5042320;28;20197;-74
2024/01/06 06:21:30;;;;;;;10.63;10.03;;;;;;;6.23;81.23;92383.88;5047626;28;20218;-73
2024/01/06 06:23:55;;;;;;;10.57;9.77;;;;;;;6.53;81.21;92416.84;5046361;28;20224;-73
2024/01/06 06:26:20;;;;;;;10.13;9.53;;;;;;;6.51;81.04;92411.13;5041062;28;20182;-74
2024/01/06 06:28:46;;;;;;;11.07;10.37;;;;;;;6.44;81.40;92416.56;5042938;28;20214;-73
2024/01/06 06:31:11;;;;;;;10.27;9.67;;;;;;;6.53;81.89;92416.84;5050321;28;20246;-74
2024/01/06 06:33:36;;;;;;;11.33;10.43;;;;;;;6.80;80.50;92414.00;5047046;28;20218;-73
2024/01/06 06:36:02;;;;;;;10.40;9.80;;;;;;;6.54;81.66;92423.59;5047477;28;20213;-73
2024/01/06 06:38:28;;;;;;;11.00;10.27;;;;;;;6.45;82.53;92412.16;5048677;28;20206;-73
2024/01/06 06:40:53;;;;;;;10.00;9.50;;;;;;;6.55;82.71;92427.75;5038932;28;20173;-75
2024/01/06 06:43:19;;;;;;;9.70;9.20;;;;;;;6.60;82.65;92432.91;5048523;28;20260;-75
2024/01/06 06:45:44;;;;;;;11.60;10.97;;;;;;;6.50;82.86;92409.59;5048244;28;20214;-76
2024/01/06 06:48:10;;;;;;;10.40;9.80;;;;;;;6.68;81.89;92427.22;5060701;28;20534;-75
2024/01/06 06:50:35;;;;;;;10.23;9.27;;;;;;;6.61;82.02;92437.09;5068837;28;20197;-73
2024/01/06 06:53:00;;;;;;;11.17;10.33;;;;;;;6.83;81.57;92429.03;5072329;28;20234;-74
2024/01/06 06:55:27;;;;;;;11.57;10.77;;;;;;;6.86;81.29;92423.34;5038951;28;20217;-73
2024/01/06 06:57:52;;;;;;;12.37;11.30;;;;;;;6.75;81.10;92432.94;5039599;28;20223;-75
2024/01/06 07:00:18;;;;;;;11.13;10.37;;;;;;;6.99;80.77;92433.22;5047017;28;20186;-78
2024/01/06 07:02:43;;;;;;;12.23;11.00;;;;;;;6.92;79.10;92402.31;5055559;28;20245;-77
2024/01/06 07:05:09;;;;;;;22.13;15.57;;;;;;;6.99;80.44;92433.97;5062862;28;20184;-78
2024/01/06 07:07:34;;;;;;;30.77;18.20;;;;;;;6.94;81.36;92435.78;5068004;28;20554;-73
2024/01/06 07:10:01;;;;;;;43.93;23.47;;;;;;;7.05;81.43;92419.94;5067369;28;20204;-75
2024/01/06 07:12:27;;;;;;;25.63;15.40;;;;;;;7.03;81.69;92439.41;5068439;28;20236;-72
2024/01/06 07:14:52;;;;;;;21.37;15.70;;;;;;;6.98;81.15;92418.66;5065049;28;20181;-75
2024/01/06 07:17:18;;;;;;;16.23;13.13;;;;;;;7.24;81.15;92423.56;5063759;28;20232;-73
2024/01/06 07:19:43;;;;;;;11.87;10.87;;;;;;;7.54;81.08;92426.09;5063915;28;20225;-74
2024/01/06 07:22:09;;;;;;;12.10;11.23;;;;;;;7.57;80.50;92425.56;5065640;28;20877;-74
2024/01/06 07:24:36;;;;;;;11.70;10.87;;;;;;;7.67;78.73;92430.72;5061181;28;20653;-73
2024/01/06 07:27:01;;;;;;;11.27;10.57;;;;;;;7.81;78.62;92423.91;5061026;28;20232;-74
2024/01/06 07:29:28;;;;;;;11.27;10.53;;;;;;;7.86;78.31;92434.28;5063645;28;20208;-73
2024/01/06 07:31:53;;;;;;;11.83;10.93;;;;;;;8.04;77.09;92423.31;5058133;28;20256;-72
2024/01/06 07:34:18;;;;;;;12.27;11.37;;;;;;;7.94;78.44;92430.34;5065365;28;20181;-74
2024/01/06 07:36:44;;;;;;;11.60;10.97;;;;;;;8.11;77.72;92426.38;5063688;28;20233;-74
2024/01/06 07:39:09;;;;;;;11.73;10.93;;;;;;;8.16;76.22;92420.38;5038898;28;20192;-74
2024/01/06 07:41:34;;;;;;;11.73;10.53;;;;;;;8.02;75.79;92417.59;5041672;28;20221;-74
2024/01/06 07:44:02;;;;;;;13.07;11.77;;;;;;;8.54;74.70;92421.50;5046915;28;20171;-74
2024/01/06 07:46:27;;;;;;;12.13;11.03;;;;;;;8.48;75.31;92425.97;5049063;28;20212;-74
2024/01/06 07:48:53;;;;;;;11.87;10.90;;;;;;;8.67;74.43;92408.66;5067738;28;20173;-73
2024/01/06 07:51:18;;;;;;;12.60;11.57;;;;;;;8.64;75.10;92429.25;5058990;28;20201;-74
2024/01/06 07:53:43;;;;;;;16.33;11.83;;;;;;;8.91;73.78;92419.16;5064991;28;20222;-74
2024/01/06 07:56:09;;;;;;;11.47;10.37;;;;;;;8.71;76.32;92424.50;5053860;28;20214;-74
2024/01/06 07:58:34;;;;;;;12.40;11.10;;;;;;;8.25;76.42;92410.25;5068104;28;20285;-74
2024/01/06 08:00:59;;;;;;;14.87;12.77;;;;;;;8.88;74.61;92430.09;5059249;28;20189;-73
2024/01/06 08:03:25;;;;;;;14.10;12.40;;;;;;;9.11;74.01;92426.78;5069697;28;20284;-74
2024/01/06 08:05:50;;;;;;;14.47;13.07;;;;;;;8.91;74.57;92426.97;5062696;28;20267;-73
2024/01/06 08:08:16;;;;;;;16.97;13.27;;;;;;;8.84;76.12;92423.91;5070777;28;20356;-73
2024/01/06 08:10:42;;;;;;;14.20;12.70;;;;;;;8.55;75.49;92426.44;5059988;28;20194;-74
2024/01/06 08:13:08;;;;;;;14.07;12.70;;;;;;;8.82;76.35;92420.78;5063493;28;20286;-73
2024/01/06 08:15:34;;;;;;;12.33;11.23;;;;;;;8.55;73.47;92415.25;5062087;28;20197;-72
2024/01/06 08:17:59;;;;;;;16.13;12.23;;;;;;;7.86;75.33;92382.31;5061127;28;20230;-73
2024/01/06 08:20:24;;;;;;;14.67;13.17;;;;;;;8.78;74.03;92430.97;5068658;28;20312;-73
2024/01/06 08:22:50;;;;;;;13.80;12.60;;;;;;;8.94;73.67;92434.22;5046072;28;20229;-73
2024/01/06 08:25:17;;;;;;;14.67;12.93;;;;;;;8.40;75.29;92410.94;5050406;28;20274;-72
2024/01/06 08:27:43;;;;;;;12.80;11.73;;;;;;;8.62;72.15;92405.31;5042699;28;20240;-72
2024/01/06 08:30:08;;;;;;;13.53;12.43;;;;;;;8.59;73.17;92404.03;5050940;28;20190;-73
2024/01/06 08:32:34;;;;;;;12.70;11.57;;;;;;;8.89;70.66;92411.63;5045468;28;20230;-73
2024/01/06 08:34:59;;;;;;;12.33;11.33;;;;;;;8.83;71.17;92424.94;5046633;28;20190;-72
2024/01/06 08:37:24;;;;;;;14.70;13.40;;;;;;;8.95;72.74;92420.94;5043937;28;20288;-72
2024/01/06 08:39:50;;;;;;;13.93;11.47;;;;;;;8.36;72.28;92409.13;5045863;28;20960;-73
2024/01/06 08:42:15;;;;;;;12.50;11.53;;;;;;;8.88;71.92;92428.28;5058170;28;20278;-73
2024/01/06 08:44:40;;;;;;;13.40;12.40;;;;;;;9.19;70.88;92402.75;5062593;28;20228;-77
2024/01/06 08:47:06;;;;;;;13.97;12.70;;;;;;;9.15;71.24;92409.59;5069688;28;20232;-74
2024/01/06 08:49:31;;;;;;;12.97;11.83;;;;;;;9.41;71.28;92413.50;5080164;28;20179;-74
2024/01/06 08:51:58;;;;;;;11.87;10.83;;;;;;;9.21;71.75;92417.06;5058492;28;20252;-74
2024/01/06 08:54:23;;;;;;;13.03;11.80;;;;;;;9.39;71.69;92421.59;5033752;28;20171;-72
2024/01/06 08:56:48;;;;;;;14.37;12.90;;;;;;;9.76;70.76;92423.53;5043746;28;20229;-73
2024/01/06 08:59:14;;;;;;;15.97;13.57;;;;;;;10.02;69.44;92408.41;5048990;28;20269;-75
2024/01/06 09:01:39;;;;;;;13.63;12.20;;;;;;;9.82;69.20;92401.59;5051904;28;20182;-73
2024/01/06 09:04:06;;;;;;;18.63;12.93;;;;;;;9.55;72.72;92415.19;5063664;28;21245;-73
2024/01/06 09:06:31;;;;;;;16.77;15.17;;;;;;;9.62;70.99;92413.00;5059546;28;20194;-73
2024/01/06 09:08:57;;;;;;;18.00;14.10;;;;;;;9.69;70.15;92410.09;5067872;28;20212;-73
2024/01/06 09:11:22;;;;;;;15.57;13.67;;;;;;;9.94;69.54;92409.00;5069428;28;20190;-73
2024/01/06 09:13:48;;;;;;;13.90;12.50;;;;;;;9.72;70.19;92410.31;5068416;28;20226;-73
2024/01/06 09:16:13;;;;;;;16.03;14.40;;;;;;;9.47;70.81;92397.53;5059179;28;20281;-73
2024/01/06 09:18:39;;;;;;;19.30;17.50;;;;;;;9.90;69.70;92400.97;5067174;28;20237;-74
2024/01/06 09:21:05;;;;;;;15.20;13.67;;;;;;;10.09;68.82;92370.50;5069327;28;20241;-74
2024/01/06 09:23:31;;;;;;;14.93;13.23;;;;;;;10.23;68.39;92394.84;5056505;28;20217;-73
2024/01/06 09:25:57;;;;;;;13.77;12.33;;;;;;;10.42;66.05;92376.59;5068109;28;20172;-73
2024/01/06 09:28:23;;;;;;;14.67;13.20;;;;;;;10.00;69.75;92385.22;5054002;28;20218;-74
2024/01/06 09:30:48;;;;;;;19.63;13.80;;;;;;;10.27;68.98;92374.97;5068767;28;20215;-73
2024/01/06 09:33:15;;;;;;;16.23;12.07;;;;;;;10.21;69.29;92365.66;5043977;28;20215;-73
2024/01/06 09:35:42;;;;;;;15.40;12.07;;;;;;;10.33;68.25;92379.06;5044901;28;20204;-73
2024/01/06 09:38:07;;;;;;;12.80;11.60;;;;;;;10.44;66.84;92364.81;5049061;28;20302;-74
2024/01/06 09:40:34;;;;;;;11.33;10.30;;;;;;;10.46;66.61;92360.06;5045772;28;20380;-74
2024/01/06 09:42:59;;;;;;;11.17;10.37;;;;;;;10.39;66.40;92375.31;5043056;28;20222;-74
2024/01/06 09:45:25;;;;;;;10.70;10.00;;;;;;;10.68;64.57;92356.88;5043090;28;20212;-74
2024/01/06 09:47:51;;;;;;;18.87;12.90;;;;;;;10.53;68.23;92352.69;5062428;28;20237;-74
2024/01/06 09:50:20;;;;;;;16.77;14.60;;;;;;;10.36;69.15;92352.41;5070670;28;20186;-74
2024/01/06 09:52:53;;;;;;;14.07;12.63;;;;;;;9.86;69.61;92341.84;5057797;28;20237;-74
2024/01/06 09:55:26;;;;;;;13.27;11.97;;;;;;;10.38;68.82;92357.34;5066448;28;20208;-74
2024/01/06 09:57:53;;;;;;;19.50;12.93;;;;;;;10.41;66.97;92338.50;5059133;28;20229;-74
2024/01/06 10:00:19;;;;;;;14.57;13.00;;;;;;;10.61;68.21;92346.81;5064725;28;20204;-73
2024/01/06 10:02:46;;;;;;;16.17;13.17;;;;;;;10.57;69.01;92352.88;5056505;28;20213;-74
2024/01/06 10:05:13;;;;;;;17.17;13.67;;;;;;;10.36;70.70;92334.16;5047387;28;20185;-75
2024/01/06 10:07:41;;;;;;;15.13;13.63;;;;;;;10.42;70.53;92325.19;5058762;28;20221;-75
2024/01/06 10:10:07;;;;;;;16.70;14.97;;;;;;;10.68;69.77;92325.56;5060839;28;20190;-73
2024/01/06 10:12:32;;;;;;;15.27;13.67;;;;;;;10.51;70.02;92305.19;5050458;28;20218;-74
2024/01/06 10:14:58;;;;;;;15.50;13.97;;;;;;;10.72;70.00;92316.84;5047592;28;20211;-75
2024/01/06 10:17:23;;;;;;;15.73;14.00;;;;;;;10.80;69.25;92299.78;5037829;28;20233;-75
2024/01/06 10:19:49;;;;;;;15.00;13.40;;;;;;;10.31;72.78;92307.34;5045262;28;20182;-75
2024/01/06 10:22:15;;;;;;;13.97;12.80;;;;;;;10.62;69.22;92292.75;5038712;28;20223;-74
2024/01/06 10:24:40;;;;;;;13.83;12.47;;;;;;;10.45;70.75;92295.91;5043343;28;20197;-75
2024/01/06 10:27:06;;;;;;;14.77;13.43;;;;;;;10.78;67.06;92302.69;5044699;28;20652;-76
2024/01/06 10:29:32;;;;;;;14.20;12.93;;;;;;;10.85;69.32;92303.06;5046044;28;20182;-75
2024/01/06 10:31:58;;;;;;;14.93;12.20;;;;;;;10.88;67.50;92273.78;5044910;28;20234;-74
2024/01/06 10:34:23;;;;;;;17.90;13.13;;;;;;;11.08;65.02;92302.13;5042794;28;20194;-76
2024/01/06 10:36:51;;;;;;;16.07;14.37;;;;;;;11.06;67.19;92299.06;5048484;28;20226;-74
2024/01/06 10:39:17;;;;;;;18.07;16.13;;;;;;;10.93;69.37;92278.91;5044576;28;20175;-74
2024/01/06 10:41:45;;;;;;;21.90;16.37;;;;;;;10.92;69.83;92285.22;5042226;28;20182;-74
2024/01/06 10:44:11;;;;;;;22.43;18.47;;;;;;;10.77;70.42;92275.00;5047436;28;20247;-75
2024/01/06 10:46:37;;;;;;;25.90;17.90;;;;;;;10.31;71.18;92240.28;5044289;28;20313;-76
2024/01/06 10:49:05;;;;;;;24.13;19.30;;;;;;;10.61;71.37;92265.91;5043468;28;20672;-75
2024/01/06 10:51:33;;;;;;;25.93;18.60;;;;;;;10.64;71.79;92275.78;5041128;28;20189;-74
2024/01/06 10:54:00;;;;;;;29.43;22.43;;;;;;;10.43;72.84;92269.31;5047409;28;20241;-75
2024/01/06 10:56:26;;;;;;;32.57;20.53;;;;;;;10.39;71.89;92257.13;5046525;28;20202;-75
2024/01/06 10:58:53;;;;;;;25.87;18.97;;;;;;;10.56;71.60;92273.03;5040706;28;20189;-74
2024/01/06 11:01:24;;;;;;;24.33;20.40;;;;;;;10.76;71.66;92257.03;5040086;28;20243;-75
2024/01/06 11:03:50;;;;;;;24.10;19.87;;;;;;;10.68;72.60;92258.47;5038506;28;20218;-75
2024/01/06 11:06:17;;;;;;;32.23;20.93;;;;;;;10.90;72.70;92236.94;5039081;28;20224;-76
2024/01/06 11:08:49;;;;;;;29.63;19.77;;;;;;;11.00;70.76;92240.13;5060080;28;20231;-77
2024/01/06 11:11:22;;;;;;;24.80;17.10;;;;;;;10.90;68.55;92222.03;5064097;28;20187;-74
2024/01/06 11:13:48;;;;;;;29.80;16.80;;;;;;;11.16;66.90;92235.38;5041572;28;20226;-77
2024/01/06 11:16:35;;;;;;;21.37;16.07;;;;;;;11.17;65.86;92227.25;5043562;28;20266;-76
2024/01/06 11:19:01;;;;;;;16.40;14.70;;;;;;;11.24;64.04;92227.66;5039835;28;20211;-76
2024/01/06 11:21:26;;;;;;;21.70;14.43;;;;;;;11.15;62.98;92194.66;5043341;28;20222;-75
2024/01/06 11:24:13;;;;;;;18.27;15.73;;;;;;;11.03;65.69;92208.22;5045462;28;20183;-79